createdAt,value
2022-10-23T00:01:36.343Z,13.88
2022-10-23T00:04:06.940Z,12.57
2022-10-23T00:06:35.194Z,10.88
2022-10-23T00:09:04.054Z,13.15
2022-10-23T00:11:32.322Z,10.85
2022-10-23T00:14:01.925Z,12.60
2022-10-23T00:16:30.593Z,12.57
2022-10-23T00:18:58.393Z,10.82
2022-10-23T00:21:26.119Z,14.07
2022-10-23T00:23:53.828Z,14.32
2022-10-23T00:26:22.348Z,9.18
2022-10-23T00:28:52.357Z,10.88
2022-10-23T00:31:21.254Z,9.18
2022-10-23T00:33:48.782Z,11.65
2022-10-23T00:36:18.157Z,13.07
2022-10-23T00:38:45.985Z,13.18
2022-10-23T00:41:20.422Z,14.05
2022-10-23T00:44:05.177Z,9.37
2022-10-23T00:46:33.119Z,12.45
2022-10-23T00:49:01.185Z,12.45
2022-10-23T00:51:34.160Z,18.30
2022-10-23T00:56:55.219Z,12.40
2022-10-23T00:59:22.768Z,35.05
2022-10-23T01:01:50.084Z,15.52
2022-10-23T01:04:17.704Z,15.93
2022-10-23T01:07:00.135Z,14.45
2022-10-23T01:09:31.768Z,10.93
2022-10-23T01:12:03.947Z,19.10
2022-10-23T01:15:06.330Z,6.78
2022-10-23T01:17:44.573Z,13.68
2022-10-23T01:20:40.909Z,17.15
2022-10-23T01:23:11.519Z,47.08
2022-10-23T01:25:49.672Z,48.70
2022-10-23T01:28:29.227Z,57.60
2022-10-23T01:30:58.605Z,78.13
2022-10-23T01:33:33.633Z,33.65
2022-10-23T01:36:07.246Z,46.50
2022-10-23T01:38:43.435Z,40.90
2022-10-23T01:41:18.236Z,65.18
2022-10-23T01:43:57.106Z,61.97
2022-10-23T01:46:26.976Z,59.60
2022-10-23T01:48:56.490Z,30.35
2022-10-23T01:51:27.578Z,28.92
2022-10-23T01:53:59.871Z,23.85
2022-10-23T01:56:32.369Z,20.58
2022-10-23T01:59:05.342Z,22.67
2022-10-23T02:01:35.249Z,16.02
2022-10-23T02:04:05.923Z,16.00
2022-10-23T02:06:33.363Z,22.90
2022-10-23T02:09:00.786Z,13.65
2022-10-23T02:11:28.463Z,17.63
2022-10-23T02:14:13.574Z,18.17
2022-10-23T02:16:52.090Z,16.83
2022-10-23T02:19:43.329Z,20.73
2022-10-23T02:22:24.144Z,32.40
2022-10-23T02:25:00.134Z,28.35
2022-10-23T02:27:42.638Z,34.83
2022-10-23T02:30:13.380Z,61.88
2022-10-23T02:32:45.729Z,31.13
2022-10-23T02:35:14.226Z,56.70
2022-10-23T02:37:42.980Z,28.95
2022-10-23T02:40:11.672Z,25.40
2022-10-23T02:42:48.615Z,22.13
2022-10-23T02:45:31.595Z,17.95
2022-10-23T02:48:07.247Z,20.50
2022-10-23T02:51:10.492Z,26.67
2022-10-23T02:54:03.229Z,41.47
2022-10-23T02:56:44.911Z,39.65
2022-10-23T02:59:43.097Z,28.65
2022-10-23T03:02:23.218Z,30.42
2022-10-23T03:04:52.831Z,42.33
2022-10-23T03:07:21.137Z,22.17
2022-10-23T03:09:48.690Z,31.50
2022-10-23T03:12:15.963Z,21.55
2022-10-23T03:14:43.100Z,21.13
2022-10-23T03:17:11.327Z,16.73
2022-10-23T03:19:38.414Z,35.78
2022-10-23T03:22:06.143Z,25.08
2022-10-23T03:24:33.511Z,35.38
2022-10-23T03:27:00.942Z,63.13
2022-10-23T03:29:28.044Z,38.22
2022-10-23T03:31:56.182Z,32.83
2022-10-23T03:34:24.221Z,32.45
2022-10-23T03:36:51.467Z,27.05
2022-10-23T03:39:18.801Z,28.15
2022-10-23T03:41:45.923Z,18.23
2022-10-23T03:44:13.668Z,21.80
2022-10-23T03:46:41.116Z,18.23
2022-10-23T03:49:08.756Z,21.08
2022-10-23T03:51:36.129Z,23.38
2022-10-23T03:54:03.745Z,12.38
2022-10-23T03:56:31.083Z,18.83
2022-10-23T03:58:58.313Z,14.80
2022-10-23T04:01:25.795Z,15.52
2022-10-23T04:03:55.846Z,12.77
2022-10-23T04:06:23.072Z,13.60
2022-10-23T04:08:50.241Z,9.43
2022-10-23T04:11:17.281Z,9.32
2022-10-23T04:13:44.359Z,10.00
2022-10-23T04:16:11.516Z,14.20
2022-10-23T04:18:42.236Z,11.80
2022-10-23T04:21:09.787Z,11.20
2022-10-23T04:23:37.178Z,10.40
2022-10-23T04:26:05.008Z,12.55
2022-10-23T04:28:32.070Z,31.35
2022-10-23T04:30:59.528Z,34.15
2022-10-23T04:33:26.878Z,37.10
2022-10-23T04:35:54.115Z,35.95
2022-10-23T04:38:21.581Z,12.50
2022-10-23T04:40:48.670Z,15.95
2022-10-23T04:43:16.023Z,14.18
2022-10-23T04:45:43.294Z,10.93
2022-10-23T04:48:10.402Z,11.82
2022-10-23T04:50:37.949Z,13.93
2022-10-23T04:53:10.091Z,16.70
2022-10-23T04:55:37.347Z,16.17
2022-10-23T04:58:04.798Z,18.95
2022-10-23T05:00:32.032Z,24.05
2022-10-23T05:02:59.453Z,16.67
2022-10-23T05:05:26.610Z,13.82
2022-10-23T05:07:53.715Z,22.83
2022-10-23T05:10:21.195Z,31.65
2022-10-23T05:12:48.311Z,16.08
2022-10-23T05:15:15.685Z,22.83
2022-10-23T05:17:46.145Z,27.35
2022-10-23T05:20:18.934Z,32.28
2022-10-23T05:22:49.107Z,27.48
2022-10-23T05:25:17.256Z,14.95
2022-10-23T05:27:44.835Z,15.43
2022-10-23T05:30:12.868Z,14.70
2022-10-23T05:32:40.929Z,16.95
2022-10-23T05:35:13.849Z,19.08
2022-10-23T05:37:43.994Z,16.52
2022-10-23T05:40:12.179Z,11.93
2022-10-23T05:42:41.595Z,34.10
2022-10-23T05:45:18.621Z,13.02
2022-10-23T05:47:46.578Z,33.90
2022-10-23T05:50:14.113Z,24.13
2022-10-23T05:52:41.782Z,17.80
2022-10-23T05:55:09.595Z,30.55
2022-10-23T05:57:37.058Z,17.20
2022-10-23T06:00:05.660Z,11.13
2022-10-23T06:02:33.719Z,13.52
2022-10-23T06:05:01.222Z,11.70
2022-10-23T06:07:32.469Z,10.13
2022-10-23T06:10:02.416Z,15.90
2022-10-23T06:12:29.719Z,10.18
2022-10-23T06:14:57.112Z,12.02
2022-10-23T06:17:24.252Z,12.43
2022-10-23T06:19:51.418Z,9.48
2022-10-23T06:24:51.012Z,19.65
2022-10-23T06:27:18.544Z,14.43
2022-10-23T06:29:45.788Z,26.75
2022-10-23T06:32:13.368Z,29.30
2022-10-23T06:34:40.777Z,16.95
2022-10-23T06:37:08.223Z,9.77
2022-10-23T06:39:37.015Z,11.43
2022-10-23T06:42:04.653Z,12.98
2022-10-23T06:44:31.816Z,16.73
2022-10-23T06:47:00.597Z,17.65
2022-10-23T06:49:30.006Z,23.38
2022-10-23T06:51:57.382Z,19.98
2022-10-23T06:54:24.738Z,16.00
2022-10-23T06:56:52.237Z,14.45
2022-10-23T06:59:19.867Z,10.82
2022-10-23T07:01:47.465Z,11.30
2022-10-23T07:04:14.923Z,10.00
2022-10-23T07:06:43.017Z,16.95
2022-10-23T07:09:10.210Z,9.75
2022-10-23T07:11:38.235Z,12.35
2022-10-23T07:14:05.370Z,8.10
2022-10-23T07:16:33.127Z,8.70
2022-10-23T07:19:01.471Z,15.18
2022-10-23T07:21:36.120Z,17.10
2022-10-23T07:24:03.656Z,15.00
2022-10-23T07:26:33.217Z,11.98
2022-10-23T07:29:01.507Z,9.50
2022-10-23T07:31:29.343Z,17.35
2022-10-23T07:33:56.575Z,14.38
2022-10-23T07:36:23.598Z,9.65
2022-10-23T07:38:51.833Z,8.18
2022-10-23T07:41:19.285Z,10.70
2022-10-23T07:43:47.170Z,11.85
2022-10-23T07:46:14.286Z,10.15
2022-10-23T07:48:41.782Z,10.00
2022-10-23T07:51:13.561Z,12.50
2022-10-23T07:53:41.352Z,11.68
2022-10-23T07:56:17.616Z,11.77
2022-10-23T07:58:45.337Z,13.02
2022-10-23T08:01:24.042Z,19.35
2022-10-23T08:03:51.226Z,11.75
2022-10-23T08:06:18.352Z,13.63
2022-10-23T08:11:25.116Z,7.78
2022-10-23T08:13:57.444Z,9.65
2022-10-23T08:16:25.116Z,9.80
2022-10-23T08:18:52.457Z,11.23
2022-10-23T08:21:20.125Z,14.93
2022-10-23T08:23:47.340Z,11.50
2022-10-23T08:26:14.965Z,10.18
2022-10-23T08:28:42.414Z,10.43
2022-10-23T08:31:18.682Z,13.98
2022-10-23T08:33:46.443Z,10.20
2022-10-23T08:36:33.119Z,11.65
2022-10-23T08:39:00.311Z,12.98
2022-10-23T08:41:39.371Z,12.88
2022-10-23T08:44:13.019Z,13.13
2022-10-23T08:46:50.084Z,12.63
2022-10-23T08:49:23.349Z,11.55
2022-10-23T08:51:54.722Z,12.32
2022-10-23T08:54:58.118Z,13.15
2022-10-23T08:57:38.837Z,13.18
2022-10-23T09:00:13.601Z,14.30
2022-10-23T09:02:47.083Z,10.60
2022-10-23T09:05:27.672Z,13.57
2022-10-23T09:08:22.754Z,17.10
2022-10-23T09:11:03.848Z,15.65
2022-10-23T09:13:40.348Z,11.20
2022-10-23T09:16:17.916Z,12.93
2022-10-23T09:18:49.642Z,13.40
2022-10-23T09:21:20.556Z,20.45
2022-10-23T09:23:47.814Z,15.45
2022-10-23T09:26:17.258Z,28.48
2022-10-23T09:29:02.713Z,18.95
2022-10-23T09:31:29.979Z,14.07
2022-10-23T09:34:00.018Z,20.55
2022-10-23T09:36:29.598Z,16.83
2022-10-23T09:39:00.781Z,18.13
2022-10-23T09:41:34.090Z,25.95
2022-10-23T09:44:20.335Z,20.25
2022-10-23T09:49:25.499Z,20.98
2022-10-23T09:52:11.031Z,18.58
2022-10-23T09:54:51.004Z,14.15
2022-10-23T09:57:40.964Z,18.80
2022-10-23T10:00:17.054Z,13.82
2022-10-23T10:03:15.658Z,13.38
2022-10-23T10:05:44.097Z,10.13
2022-10-23T10:08:26.514Z,10.35
2022-10-23T10:11:20.524Z,9.30
2022-10-23T10:14:24.780Z,11.50
2022-10-23T10:16:57.718Z,13.77
2022-10-23T10:19:36.789Z,13.65
2022-10-23T10:22:20.518Z,8.85
2022-10-23T10:28:28.471Z,15.65
2022-10-23T10:31:41.658Z,16.75
2022-10-23T10:34:33.226Z,15.90
2022-10-23T10:37:37.659Z,11.98
2022-10-23T10:40:18.826Z,12.52
2022-10-23T10:43:04.007Z,11.25
2022-10-23T10:45:38.116Z,10.02
2022-10-23T10:48:49.525Z,16.08
2022-10-23T10:51:28.444Z,17.80
2022-10-23T10:54:20.354Z,8.20
2022-10-23T10:56:48.361Z,8.75
2022-10-23T10:59:42.198Z,7.55
2022-10-23T11:02:46.342Z,12.93
2022-10-23T11:05:35.329Z,8.75
2022-10-23T11:08:02.304Z,13.15
2022-10-23T11:10:31.317Z,8.77
2022-10-23T11:12:58.776Z,7.05
2022-10-23T11:15:34.618Z,8.13
2022-10-23T11:18:06.417Z,6.28
2022-10-23T11:21:18.474Z,8.95
2022-10-23T11:24:06.083Z,5.28
2022-10-23T11:26:36.107Z,4.63
2022-10-23T11:29:25.316Z,7.97
2022-10-23T11:32:18.471Z,6.78
2022-10-23T11:35:06.241Z,4.65
2022-10-23T11:37:34.037Z,3.95
2022-10-23T11:40:06.827Z,7.70
2022-10-23T11:42:47.647Z,10.48
2022-10-23T11:45:34.098Z,8.48
2022-10-23T11:48:05.387Z,11.82
2022-10-23T11:50:52.701Z,11.93
2022-10-23T11:53:31.885Z,5.55
2022-10-23T11:56:21.878Z,7.90
2022-10-23T11:58:59.408Z,5.03
2022-10-23T12:01:40.349Z,9.82
2022-10-23T12:04:22.357Z,4.70
2022-10-23T12:07:01.345Z,9.07
2022-10-23T12:09:45.881Z,10.38
2022-10-23T12:12:13.086Z,6.88
2022-10-23T12:14:51.050Z,7.85
2022-10-23T12:17:33.004Z,4.43
2022-10-23T12:20:12.298Z,14.63
2022-10-23T12:23:03.038Z,5.03
2022-10-23T12:25:39.176Z,5.93
2022-10-23T12:28:40.337Z,6.88
2022-10-23T12:31:19.545Z,3.75
2022-10-23T12:33:48.246Z,139.55
2022-10-23T12:36:44.919Z,25.77
2022-10-23T12:39:28.183Z,11.88
2022-10-23T12:41:55.970Z,6.40
2022-10-23T12:44:25.581Z,10.35
2022-10-23T12:47:00.192Z,5.38
2022-10-23T12:49:31.911Z,4.50
2022-10-23T12:52:07.174Z,7.55
2022-10-23T12:54:39.515Z,16.05
2022-10-23T12:57:26.157Z,6.10
2022-10-23T13:00:03.508Z,11.00
2022-10-23T13:02:32.270Z,7.15
2022-10-23T13:05:03.178Z,4.93
2022-10-23T13:07:34.062Z,7.72
2022-10-23T13:10:03.043Z,9.73
2022-10-23T13:12:33.299Z,7.18
2022-10-23T13:15:17.247Z,5.47
2022-10-23T13:18:00.211Z,10.90
2022-10-23T13:20:39.738Z,10.60
2022-10-23T13:23:20.733Z,7.45
2022-10-23T13:26:21.679Z,9.70
2022-10-23T13:28:49.171Z,4.57
2022-10-23T13:31:21.324Z,5.97
2022-10-23T13:34:05.673Z,7.20
2022-10-23T13:36:37.042Z,5.38
2022-10-23T13:39:10.268Z,6.88
2022-10-23T13:41:41.691Z,9.48
2022-10-23T13:44:12.760Z,5.88
2022-10-23T13:46:40.380Z,2.92
2022-10-23T13:49:07.652Z,7.13
2022-10-23T13:51:42.897Z,13.68
2022-10-23T13:54:15.836Z,8.60
2022-10-23T13:56:43.183Z,5.63
2022-10-23T13:59:14.150Z,7.80
2022-10-23T14:01:43.597Z,5.78
2022-10-23T14:04:12.302Z,5.47
2022-10-23T14:06:40.017Z,7.55
2022-10-23T14:09:13.362Z,4.55
2022-10-23T14:11:41.028Z,4.88
2022-10-23T14:14:08.573Z,8.25
2022-10-23T14:16:36.021Z,8.65
2022-10-23T14:19:03.201Z,4.50
2022-10-23T14:21:30.493Z,10.25
2022-10-23T14:23:58.328Z,15.35
2022-10-23T14:26:30.557Z,7.68
2022-10-23T14:29:02.382Z,12.73
2022-10-23T14:31:34.393Z,5.70
2022-10-23T14:34:02.168Z,11.02
2022-10-23T14:36:38.534Z,8.65
2022-10-23T14:39:17.634Z,8.93
2022-10-23T14:41:46.249Z,4.55
2022-10-23T14:44:13.985Z,7.82
2022-10-23T14:46:41.145Z,4.57
2022-10-23T14:49:08.470Z,3.03
2022-10-23T14:51:35.744Z,5.63
2022-10-23T14:54:05.633Z,7.63
2022-10-23T14:56:35.919Z,5.78
2022-10-23T14:59:03.970Z,9.98
2022-10-23T15:01:33.396Z,7.35
2022-10-23T15:04:00.837Z,7.10
2022-10-23T15:06:28.124Z,2.53
2022-10-23T15:08:57.218Z,9.32
2022-10-23T15:11:26.027Z,10.57
2022-10-23T15:13:55.442Z,11.85
2022-10-23T15:16:24.320Z,5.45
2022-10-23T15:18:52.193Z,11.75
2022-10-23T15:21:19.439Z,7.80
2022-10-23T15:23:47.503Z,3.30
2022-10-23T15:26:21.119Z,10.55
2022-10-23T15:28:59.078Z,7.38
2022-10-23T15:31:39.408Z,7.55
2022-10-23T15:34:08.169Z,5.88
2022-10-23T15:36:35.687Z,5.05
2022-10-23T15:39:07.449Z,9.93
2022-10-23T15:41:36.339Z,5.22
2022-10-23T15:44:04.754Z,4.50
2022-10-23T15:46:32.514Z,5.75
2022-10-23T15:48:59.815Z,8.90
2022-10-23T15:51:27.079Z,5.07
2022-10-23T15:53:55.044Z,4.60
2022-10-23T15:56:22.145Z,4.45
2022-10-23T15:58:49.416Z,5.53
2022-10-23T16:01:17.045Z,7.65
2022-10-23T16:03:45.327Z,7.90
2022-10-23T16:06:14.360Z,17.00
2022-10-23T16:08:44.234Z,4.38
2022-10-23T16:11:19.121Z,6.22
2022-10-23T16:13:48.025Z,4.57
2022-10-23T16:16:15.931Z,7.20
2022-10-23T16:18:44.990Z,9.00
2022-10-23T16:21:22.523Z,5.15
2022-10-23T16:23:51.351Z,5.55
2022-10-23T16:26:23.184Z,3.30
2022-10-23T16:29:06.292Z,5.05
2022-10-23T16:31:33.723Z,5.07
2022-10-23T16:34:02.786Z,5.10
2022-10-23T16:36:30.629Z,14.45
2022-10-23T16:38:58.031Z,8.02
2022-10-23T16:41:25.309Z,2.75
2022-10-23T16:43:52.632Z,4.63
2022-10-23T16:46:22.260Z,8.40
2022-10-23T16:48:51.625Z,9.23
2022-10-23T16:51:24.337Z,3.45
2022-10-23T16:53:52.016Z,6.05
2022-10-23T16:56:21.725Z,6.63
2022-10-23T16:58:50.019Z,5.85
2022-10-23T17:01:23.728Z,5.80
2022-10-23T17:03:53.012Z,5.45
2022-10-23T17:06:25.593Z,7.32
2022-10-23T17:08:54.295Z,3.30
2022-10-23T17:11:22.672Z,5.53
2022-10-23T17:13:59.408Z,8.52
2022-10-23T17:16:40.305Z,5.70
2022-10-23T17:19:20.851Z,5.80
2022-10-23T17:21:55.541Z,8.75
2022-10-23T17:24:23.406Z,3.35
2022-10-23T17:26:50.813Z,4.43
2022-10-23T17:29:18.850Z,3.33
2022-10-23T17:31:49.971Z,4.72
2022-10-23T17:34:20.853Z,6.25
2022-10-23T17:36:51.257Z,5.63
2022-10-23T17:39:21.895Z,2.72
2022-10-23T17:41:49.735Z,4.18
2022-10-23T17:44:17.718Z,4.45
2022-10-23T17:46:45.074Z,10.02
2022-10-23T17:49:13.032Z,13.00
2022-10-23T17:51:42.056Z,8.15
2022-10-23T17:54:12.341Z,4.30
2022-10-23T17:56:41.114Z,2.90
2022-10-23T17:59:13.909Z,8.20
2022-10-23T18:01:42.921Z,3.05
2022-10-23T18:04:12.255Z,4.68
2022-10-23T18:06:48.583Z,6.53
2022-10-23T18:09:16.280Z,4.13
2022-10-23T18:11:48.047Z,3.88
2022-10-23T18:14:17.676Z,6.25
2022-10-23T18:16:46.221Z,6.40
2022-10-23T18:19:15.373Z,8.45
2022-10-23T18:21:42.453Z,3.47
2022-10-23T18:24:10.414Z,5.65
2022-10-23T18:26:40.272Z,2.70
2022-10-23T18:29:09.654Z,6.88
2022-10-23T18:31:38.336Z,4.10
2022-10-23T18:34:27.132Z,2.63
2022-10-23T18:36:55.724Z,8.07
2022-10-23T18:39:25.591Z,8.43
2022-10-23T18:41:55.938Z,5.47
2022-10-23T18:44:24.827Z,8.30
2022-10-23T18:46:55.585Z,5.65
2022-10-23T18:49:23.497Z,7.45
2022-10-23T18:51:51.472Z,3.35
2022-10-23T18:54:20.799Z,2.85
2022-10-23T18:56:48.548Z,7.30
2022-10-23T18:59:19.389Z,6.30
2022-10-23T19:01:46.921Z,7.75
2022-10-23T19:04:18.682Z,4.90
2022-10-23T19:06:47.648Z,3.90
2022-10-23T19:09:15.944Z,6.95
2022-10-23T19:11:43.909Z,4.53
2022-10-23T19:14:12.002Z,6.05
2022-10-23T19:16:57.636Z,4.72
2022-10-23T19:19:31.257Z,8.23
2022-10-23T19:21:59.192Z,5.03
2022-10-23T19:24:32.451Z,9.30
2022-10-23T19:27:02.060Z,7.72
2022-10-23T19:29:30.167Z,6.18
2022-10-23T19:31:57.982Z,4.65
2022-10-23T19:34:25.648Z,4.78
2022-10-23T19:36:55.140Z,4.85
2022-10-23T19:39:23.204Z,6.85
2022-10-23T19:41:52.956Z,4.70
2022-10-23T19:44:20.960Z,7.38
2022-10-23T19:46:49.077Z,6.38
2022-10-23T19:49:22.255Z,6.80
2022-10-23T19:51:51.501Z,4.63
2022-10-23T19:54:20.557Z,8.60
2022-10-23T19:56:49.027Z,5.72
2022-10-23T19:59:16.625Z,9.73
2022-10-23T20:01:49.037Z,10.80
2022-10-23T20:04:20.098Z,4.80
2022-10-23T20:06:47.710Z,5.10
2022-10-23T20:09:15.224Z,5.63
2022-10-23T20:11:43.724Z,12.32
2022-10-23T20:14:11.069Z,2.88
2022-10-23T20:16:39.991Z,9.90
2022-10-23T20:19:11.473Z,3.10
2022-10-23T20:21:40.711Z,4.07
2022-10-23T20:24:10.089Z,6.72
2022-10-23T20:26:41.551Z,5.03
2022-10-23T20:29:10.549Z,7.10
2022-10-23T20:31:39.834Z,7.50
2022-10-23T20:34:14.081Z,4.32
2022-10-23T20:36:46.895Z,7.70
2022-10-23T20:39:25.814Z,9.23
2022-10-23T20:41:55.719Z,3.50
2022-10-23T20:44:23.942Z,13.68
2022-10-23T20:46:52.312Z,3.50
2022-10-23T20:49:19.595Z,4.05
2022-10-23T20:51:54.946Z,10.23
2022-10-23T20:54:25.038Z,8.27
2022-10-23T20:56:52.429Z,5.93
2022-10-23T20:59:19.866Z,4.60
2022-10-23T21:01:50.354Z,4.00
2022-10-23T21:04:22.970Z,9.88
2022-10-23T21:07:09.571Z,5.15
2022-10-23T21:09:38.226Z,4.68
2022-10-23T21:12:07.012Z,13.13
2022-10-23T21:14:35.649Z,7.00
2022-10-23T21:17:05.136Z,5.45
2022-10-23T21:19:33.160Z,11.13
2022-10-23T21:22:00.376Z,5.55
2022-10-23T21:24:27.869Z,4.65
2022-10-23T21:26:55.005Z,5.82
2022-10-23T21:29:22.127Z,7.22
2022-10-23T21:31:57.470Z,7.45
2022-10-23T21:37:13.409Z,6.63
2022-10-23T21:39:40.273Z,5.63
2022-10-23T21:42:08.111Z,8.32
2022-10-23T21:44:35.706Z,4.63
2022-10-23T21:47:02.930Z,4.18
2022-10-23T21:49:30.540Z,7.80
2022-10-23T21:51:57.808Z,5.55
2022-10-23T21:54:26.347Z,5.40
2022-10-23T21:56:54.169Z,6.47
2022-10-23T21:59:25.786Z,7.65
2022-10-23T22:01:55.390Z,7.53
2022-10-23T22:04:25.969Z,6.30
2022-10-23T22:06:56.134Z,7.63
2022-10-23T22:09:23.822Z,8.93
2022-10-23T22:11:52.275Z,10.43
2022-10-23T22:14:20.040Z,10.30
2022-10-23T22:16:48.124Z,10.15
2022-10-23T22:19:17.931Z,8.25
2022-10-23T22:21:45.865Z,7.93
2022-10-23T22:24:13.197Z,6.88
2022-10-23T22:26:44.261Z,9.18
2022-10-23T22:29:14.886Z,7.00
2022-10-23T22:31:45.488Z,5.18
2022-10-23T22:34:28.795Z,8.25
2022-10-23T22:37:09.796Z,10.27
2022-10-23T22:39:37.398Z,4.93
2022-10-23T22:42:06.066Z,19.52
2022-10-23T22:44:33.330Z,13.30
2022-10-23T22:47:00.650Z,5.68
2022-10-23T22:49:28.024Z,41.55
2022-10-23T22:51:55.242Z,12.63
2022-10-23T22:54:22.918Z,8.32
2022-10-23T22:56:50.166Z,8.10
2022-10-23T22:59:17.381Z,7.28
2022-10-23T23:01:47.758Z,5.57
2022-10-23T23:07:10.701Z,4.38
2022-10-23T23:09:40.115Z,7.65
2022-10-23T23:12:09.017Z,10.48
2022-10-23T23:14:36.243Z,5.47
2022-10-23T23:17:04.415Z,7.53
2022-10-23T23:19:31.802Z,8.75
2022-10-23T23:22:00.136Z,9.70
2022-10-23T23:24:27.940Z,8.85
2022-10-23T23:26:55.342Z,7.07
2022-10-23T23:29:22.525Z,9.27
2022-10-23T23:31:50.077Z,5.53
2022-10-23T23:34:17.430Z,5.75
2022-10-23T23:36:45.396Z,10.02
2022-10-23T23:39:13.001Z,8.98
2022-10-23T23:41:40.272Z,6.20
2022-10-23T23:44:08.930Z,21.33
2022-10-23T23:46:36.270Z,6.15
2022-10-23T23:49:03.681Z,7.35
2022-10-23T23:51:30.899Z,8.35
2022-10-23T23:53:58.370Z,9.10
2022-10-23T23:56:25.690Z,6.90
2022-10-23T23:58:52.749Z,9.52
